Time;durP1;ratioP1;P1;durP2;ratioP2;P2;SDS_P1;SDS_P2;PMS_P1;PMS_P2;Temp;Humidity;BMP_temperature;BMP_pressure;BME280_temperature;BME280_humidity;BME280_pressure;Samples;Min_cycle;Max_cycle;Signal;HPM_P1;HPM_P2
2023/08/29 00:00:21;;;;;;;1999.90;999.90;;;15.60;99.90;;;;;;5012783;28;20179;-72
2023/08/29 00:02:48;;;;;;;1999.90;999.90;;;15.60;99.90;;;;;;5012536;28;20178;-71
2023/08/29 00:05:14;;;;;;;1999.90;999.90;;;15.50;99.90;;;;;;5012891;28;20583;-71
2023/08/29 00:07:41;;;;;;;1999.90;999.90;;;15.50;99.90;;;;;;5012624;28;20510;-71
2023/08/29 00:10:07;;;;;;;1999.90;999.90;;;15.40;99.90;;;;;;5012605;28;20417;-72
2023/08/29 00:12:33;;;;;;;1999.90;999.90;;;15.40;99.90;;;;;;5012303;28;20513;-71
2023/08/29 00:14:59;;;;;;;1999.90;999.90;;;15.40;99.90;;;;;;5012528;28;20457;-71
2023/08/29 00:17:26;;;;;;;1999.90;999.90;;;15.30;99.90;;;;;;5012477;28;20260;-72
2023/08/29 00:19:52;;;;;;;1999.90;999.90;;;15.10;99.90;;;;;;5012479;28;20421;-71
2023/08/29 00:22:18;;;;;;;1999.90;999.90;;;14.80;99.90;;;;;;5012137;28;20407;-71
2023/08/29 00:24:44;;;;;;;1999.90;999.90;;;14.60;99.90;;;;;;5012443;28;20408;-71
2023/08/29 00:27:10;;;;;;;1999.90;999.90;;;14.50;99.90;;;;;;5012345;28;20204;-71
2023/08/29 00:29:36;;;;;;;1999.90;999.90;;;14.60;99.90;;;;;;5012368;28;20183;-71
2023/08/29 00:32:02;;;;;;;1999.90;999.90;;;14.50;99.90;;;;;;5012059;28;20963;-71
2023/08/29 00:34:27;;;;;;;1999.90;999.90;;;14.60;99.90;;;;;;5012265;28;20459;-72
2023/08/29 00:36:53;;;;;;;1999.90;999.90;;;14.60;99.90;;;;;;5011581;28;20679;-71
2023/08/29 00:39:19;;;;;;;1999.90;999.90;;;14.60;99.90;;;;;;5012200;28;20175;-72
2023/08/29 00:41:49;;;;;;;1999.90;999.90;;;14.60;99.90;;;;;;5011962;28;20225;-71
2023/08/29 00:44:15;;;;;;;1999.90;999.90;;;14.70;99.90;;;;;;5012178;28;20497;-71
2023/08/29 00:46:42;;;;;;;1999.90;999.90;;;14.80;99.90;;;;;;5012143;28;20433;-72
2023/08/29 00:49:08;;;;;;;1999.90;999.90;;;14.90;99.90;;;;;;5012161;28;20778;-71
2023/08/29 00:51:34;;;;;;;1999.90;999.90;;;15.10;99.90;;;;;;5011851;28;20406;-71
2023/08/29 00:54:01;;;;;;;1999.90;999.90;;;15.20;99.90;;;;;;5012037;28;20457;-72
2023/08/29 00:56:27;;;;;;;1999.90;999.90;;;15.30;99.90;;;;;;5012029;28;20484;-71
2023/08/29 00:58:52;;;;;;;1999.90;999.90;;;15.30;99.90;;;;;;5012092;28;20400;-71
2023/08/29 01:01:18;;;;;;;1999.90;999.90;;;15.40;99.90;;;;;;5011963;28;20477;-71
2023/08/29 01:03:44;;;;;;;1999.90;999.90;;;15.40;99.90;;;;;;5012057;28;20443;-71
2023/08/29 01:06:11;;;;;;;1999.90;999.90;;;15.50;99.90;;;;;;5011989;28;20978;-72
2023/08/29 01:08:37;;;;;;;1999.90;999.90;;;15.50;99.90;;;;;;5012062;28;20184;-71
2023/08/29 01:11:26;;;;;;;1999.90;999.90;;;15.50;99.90;;;;;;5011705;28;20407;-71
2023/08/29 01:14:05;;;;;;;1999.90;999.90;;;15.50;99.90;;;;;;5011919;28;20488;-72
2023/08/29 01:16:48;;;;;;;1999.90;999.90;;;15.50;99.90;;;;;;5012320;28;20443;-73
2023/08/29 01:19:15;;;;;;;1999.90;999.90;;;15.50;99.90;;;;;;5012541;28;20934;-72
2023/08/29 01:21:55;;;;;;;1999.90;999.90;;;15.50;99.90;;;;;;5012257;28;20408;-73
2023/08/29 01:24:55;;;;;;;1999.90;999.90;;;15.50;99.90;;;;;;5012879;28;20417;-72
2023/08/29 01:27:20;;;;;;;1999.90;999.90;;;15.50;99.90;;;;;;5011391;28;20498;-72
2023/08/29 01:29:46;;;;;;;1999.90;999.90;;;15.60;99.90;;;;;;5012908;28;20412;-71
2023/08/29 01:32:14;;;;;;;1999.90;999.90;;;15.60;99.90;;;;;;5012332;28;20173;-73
2023/08/29 01:34:42;;;;;;;1999.90;999.90;;;15.60;99.90;;;;;;5012903;28;20204;-73
2023/08/29 01:37:07;;;;;;;1999.90;999.90;;;15.70;99.90;;;;;;5012718;28;20841;-72
2023/08/29 01:39:33;;;;;;;1999.90;999.90;;;15.70;99.90;;;;;;5012929;28;20412;-73
2023/08/29 01:41:58;;;;;;;1999.90;999.90;;;15.70;99.90;;;;;;5012284;28;20165;-72
2023/08/29 01:44:24;;;;;;;1999.90;999.90;;;15.60;99.90;;;;;;5012798;28;20176;-72
2023/08/29 01:46:50;;;;;;;1999.90;999.90;;;15.70;99.90;;;;;;5012599;28;20200;-73
2023/08/29 01:49:15;;;;;;;1999.90;999.90;;;15.80;99.90;;;;;;5014681;28;20242;-72
2023/08/29 01:51:41;;;;;;;1999.90;999.90;;;15.70;99.90;;;;;;5014956;28;20525;-71
2023/08/29 01:54:07;;;;;;;1999.90;999.90;;;15.80;99.90;;;;;;5015058;28;20195;-72
2023/08/29 01:56:34;;;;;;;1999.90;999.90;;;15.80;99.90;;;;;;5015081;28;20189;-71
2023/08/29 01:59:00;;;;;;;1999.90;999.90;;;15.80;99.90;;;;;;5015108;28;20539;-72
2023/08/29 02:01:29;;;;;;;1999.90;999.90;;;15.80;99.90;;;;;;5014740;28;20841;-71
2023/08/29 02:03:55;;;;;;;1999.90;999.90;;;15.80;99.90;;;;;;5015172;28;20420;-71
2023/08/29 02:06:20;;;;;;;1999.90;999.90;;;15.80;99.90;;;;;;5015016;28;20419;-71
2023/08/29 02:08:46;;;;;;;1999.90;999.90;;;15.80;99.90;;;;;;5014786;28;20446;-72
2023/08/29 02:11:11;;;;;;;1999.90;999.90;;;15.80;99.90;;;;;;5014557;28;20176;-71
2023/08/29 02:13:37;;;;;;;1999.90;999.90;;;15.80;99.90;;;;;;5014714;28;20210;-71
2023/08/29 02:16:03;;;;;;;1999.90;999.90;;;15.80;99.90;;;;;;5014665;28;20171;-72
2023/08/29 02:18:29;;;;;;;1999.90;999.90;;;15.80;99.90;;;;;;5014807;28;20616;-71
2023/08/29 02:20:55;;;;;;;1999.90;999.90;;;15.80;99.90;;;;;;5014611;28;20432;-71
2023/08/29 02:23:20;;;;;;;1999.90;999.90;;;15.80;99.90;;;;;;5014516;28;20440;-71
2023/08/29 02:25:46;;;;;;;1999.90;999.90;;;15.70;99.90;;;;;;5014549;28;20185;-72
2023/08/29 02:28:14;;;;;;;1999.90;999.90;;;15.80;99.90;;;;;;5014486;28;20212;-72
2023/08/29 02:30:39;;;;;;;1999.90;999.90;;;15.80;99.90;;;;;;5014460;28;20193;-71
2023/08/29 02:33:05;;;;;;;1999.90;999.90;;;15.80;99.90;;;;;;5014110;28;20422;-71
2023/08/29 02:35:30;;;;;;;1999.90;999.90;;;15.70;99.90;;;;;;5014387;28;20595;-72
2023/08/29 02:37:56;;;;;;;1999.90;999.90;;;15.70;99.90;;;;;;5014225;28;20192;-72
2023/08/29 02:40:22;;;;;;;1999.90;999.90;;;15.80;99.90;;;;;;5014311;28;20170;-71
2023/08/29 02:42:47;;;;;;;1999.90;999.90;;;15.70;99.90;;;;;;5014014;28;20167;-71
2023/08/29 02:45:13;;;;;;;1999.90;999.90;;;15.70;99.90;;;;;;5015105;28;20411;-72
2023/08/29 02:47:39;;;;;;;1999.90;999.90;;;15.80;99.90;;;;;;5015790;28;20570;-72
2023/08/29 02:50:05;;;;;;;1999.90;999.90;;;15.80;99.90;;;;;;5015773;28;20658;-71
2023/08/29 02:52:30;;;;;;;1999.90;999.90;;;15.70;99.90;;;;;;5015818;28;20288;-71
2023/08/29 02:54:56;;;;;;;1999.90;999.90;;;15.80;99.90;;;;;;5015795;28;20848;-72
2023/08/29 02:57:21;;;;;;;1999.90;999.90;;;15.80;99.90;;;;;;5015810;28;20192;-73
2023/08/29 02:59:47;;;;;;;1999.90;999.90;;;15.70;99.90;;;;;;5015335;28;20171;-72
2023/08/29 03:02:13;;;;;;;1999.90;999.90;;;15.60;99.90;;;;;;5015024;28;20526;-72
2023/08/29 03:04:38;;;;;;;1999.90;999.90;;;15.50;99.90;;;;;;5015752;28;20252;-73
2023/08/29 03:07:05;;;;;;;1999.90;999.90;;;15.50;99.90;;;;;;5015809;28;20666;-72
2023/08/29 03:09:30;;;;;;;1999.90;999.90;;;15.50;99.90;;;;;;5015521;28;20180;-73
2023/08/29 03:11:56;;;;;;;1999.90;999.90;;;15.60;99.90;;;;;;5015134;28;20474;-73
2023/08/29 03:14:22;;;;;;;1999.90;999.90;;;15.50;99.90;;;;;;5015359;28;20198;-72
2023/08/29 03:16:47;;;;;;;1999.90;999.90;;;15.40;99.90;;;;;;5015649;28;20197;-72
2023/08/29 03:19:13;;;;;;;1999.90;999.90;;;15.40;99.90;;;;;;5015402;28;20224;-72
2023/08/29 03:21:39;;;;;;;1999.90;999.90;;;15.40;99.90;;;;;;5013180;28;20181;-70
2023/08/29 03:24:07;;;;;;;1999.90;999.90;;;15.40;99.90;;;;;;5013508;28;20409;-71
2023/08/29 03:26:32;;;;;;;1999.90;999.90;;;15.40;99.90;;;;;;5013335;28;20355;-71
2023/08/29 03:28:58;;;;;;;1999.90;999.90;;;15.40;99.90;;;;;;5013349;28;20474;-71
2023/08/29 03:31:23;;;;;;;1999.90;999.90;;;15.30;99.90;;;;;;5013063;28;20337;-71
2023/08/29 03:33:49;;;;;;;1999.90;999.90;;;15.30;99.90;;;;;;5013215;28;20200;-71
2023/08/29 03:36:14;;;;;;;1999.90;999.90;;;15.30;99.90;;;;;;5013225;28;20638;-71
2023/08/29 03:38:42;;;;;;;1999.90;999.90;;;15.30;99.90;;;;;;5013159;28;20174;-71
2023/08/29 03:41:08;;;;;;;1999.90;999.90;;;15.30;99.90;;;;;;5012968;28;20578;-70
2023/08/29 03:43:34;;;;;;;1999.90;999.90;;;15.30;99.90;;;;;;5013124;28;20402;-70
2023/08/29 03:46:02;;;;;;;1999.90;999.90;;;15.20;99.90;;;;;;5013288;28;20173;-71
2023/08/29 03:48:28;;;;;;;1999.90;999.90;;;15.20;99.90;;;;;;5012940;28;20442;-71
2023/08/29 03:50:54;;;;;;;1999.90;999.90;;;15.20;99.90;;;;;;5012663;28;20505;-71
2023/08/29 03:53:20;;;;;;;1999.90;999.90;;;15.30;99.90;;;;;;5012921;28;20413;-71
2023/08/29 03:55:46;;;;;;;1999.90;999.90;;;15.30;99.90;;;;;;5012927;28;20928;-71
2023/08/29 03:58:11;;;;;;;1999.90;999.90;;;15.30;99.90;;;;;;5012804;28;20199;-71
2023/08/29 04:00:37;;;;;;;1999.90;999.90;;;15.20;99.90;;;;;;5012813;28;20173;-71
2023/08/29 04:03:08;;;;;;;1999.90;999.90;;;15.20;99.90;;;;;;5012525;28;20160;-71
2023/08/29 04:05:35;;;;;;;1999.90;999.90;;;15.20;99.90;;;;;;5012763;28;20536;-70
2023/08/29 04:08:02;;;;;;;1999.90;999.90;;;15.20;99.90;;;;;;5012688;28;20947;-72
2023/08/29 04:10:28;;;;;;;1999.90;999.90;;;15.20;99.90;;;;;;5012693;28;20766;-71
2023/08/29 04:12:54;;;;;;;1999.90;999.90;;;15.10;99.90;;;;;;5012381;28;20419;-71
2023/08/29 04:15:19;;;;;;;1999.90;999.90;;;15.10;99.90;;;;;;5012504;28;20231;-71
2023/08/29 04:17:45;;;;;;;1999.90;999.90;;;15.10;99.90;;;;;;5012424;28;20406;-71
2023/08/29 04:20:12;;;;;;;1999.90;999.90;;;15.10;99.90;;;;;;5012598;28;20176;-71
2023/08/29 04:22:38;;;;;;;1999.90;999.90;;;15.00;99.90;;;;;;5012277;28;20175;-72
2023/08/29 04:25:06;;;;;;;1999.90;999.90;;;15.00;99.90;;;;;;5012426;28;20421;-71
2023/08/29 04:27:32;;;;;;;1999.90;999.90;;;15.10;99.90;;;;;;5012396;28;20434;-72
2023/08/29 04:29:57;;;;;;;1999.90;999.90;;;15.10;99.90;;;;;;5012376;28;20537;-71
2023/08/29 04:32:24;;;;;;;1999.90;999.90;;;15.10;99.90;;;;;;5012122;28;20174;-71
2023/08/29 04:34:49;;;;;;;1999.90;999.90;;;15.10;99.90;;;;;;5012201;28;20236;-72
2023/08/29 04:37:16;;;;;;;1999.90;999.90;;;15.10;99.90;;;;;;5012267;28;20465;-71
2023/08/29 04:39:42;;;;;;;1999.90;999.90;;;15.10;99.90;;;;;;5012218;28;20183;-71
2023/08/29 04:42:07;;;;;;;1999.90;999.90;;;14.90;99.90;;;;;;5011986;28;20433;-71
2023/08/29 04:44:33;;;;;;;1999.90;999.90;;;14.90;99.90;;;;;;5012235;28;20174;-71
2023/08/29 04:46:59;;;;;;;1999.90;999.90;;;14.90;99.90;;;;;;5012286;28;20629;-71
2023/08/29 04:49:25;;;;;;;1999.90;999.90;;;14.80;99.90;;;;;;5012198;28;20836;-71
2023/08/29 04:51:51;;;;;;;1999.90;999.90;;;14.70;99.90;;;;;;5011894;28;20411;-70
2023/08/29 04:54:16;;;;;;;1999.90;999.90;;;14.70;99.90;;;;;;5012038;28;20545;-71
2023/08/29 04:56:42;;;;;;;1999.90;999.90;;;14.70;99.90;;;;;;5011936;28;20662;-72
2023/08/29 04:59:08;;;;;;;1999.90;999.90;;;14.80;99.90;;;;;;5012278;28;20252;-71
2023/08/29 05:01:33;;;;;;;1999.90;999.90;;;14.70;99.90;;;;;;5012459;28;20267;-72
2023/08/29 05:03:59;;;;;;;1999.90;999.90;;;14.60;99.90;;;;;;5012889;28;20605;-72
2023/08/29 05:06:25;;;;;;;1999.90;999.90;;;14.30;99.90;;;;;;5012935;28;20175;-72
2023/08/29 05:08:51;;;;;;;1999.90;999.90;;;14.50;99.90;;;;;;5012977;28;20169;-72
2023/08/29 05:11:17;;;;;;;1999.90;999.90;;;14.40;99.90;;;;;;5013421;28;20415;-72
2023/08/29 05:13:43;;;;;;;1999.90;999.90;;;14.40;99.90;;;;;;5013136;28;20664;-71
2023/08/29 05:16:09;;;;;;;1999.90;999.90;;;14.50;99.90;;;;;;5013229;28;20422;-71
2023/08/29 05:18:34;;;;;;;1999.90;999.90;;;14.40;99.90;;;;;;5012646;28;20177;-72
2023/08/29 05:21:00;;;;;;;1999.90;999.90;;;14.50;99.90;;;;;;5012492;28;20649;-72
2023/08/29 05:23:26;;;;;;;1999.90;999.90;;;14.60;99.90;;;;;;5013331;28;20195;-72
2023/08/29 05:25:52;;;;;;;1999.90;999.90;;;14.70;99.90;;;;;;5016693;28;20505;-71
2023/08/29 05:28:18;;;;;;;1999.90;999.90;;;14.70;99.90;;;;;;5016889;28;20208;-72
2023/08/29 05:30:43;;;;;;;1999.90;999.90;;;14.70;99.90;;;;;;5016599;28;20419;-71
2023/08/29 05:33:09;;;;;;;1999.90;999.90;;;14.70;99.90;;;;;;5016686;28;20630;-71
2023/08/29 05:35:34;;;;;;;1999.90;999.90;;;14.50;99.90;;;;;;5015958;28;20216;-71
2023/08/29 05:38:00;;;;;;;1999.90;999.90;;;14.50;99.90;;;;;;5016770;28;20438;-72
2023/08/29 05:40:26;;;;;;;1999.90;999.90;;;14.40;99.90;;;;;;5016962;28;20180;-72
2023/08/29 05:42:51;;;;;;;1999.90;999.90;;;14.40;99.90;;;;;;5016547;28;20545;-72
2023/08/29 05:45:17;;;;;;;1999.90;999.90;;;14.40;99.90;;;;;;5016964;28;20188;-71
2023/08/29 05:47:42;;;;;;;1999.90;999.90;;;14.40;99.90;;;;;;5017351;28;20201;-72
2023/08/29 05:50:08;;;;;;;1999.90;999.90;;;14.40;99.90;;;;;;5017469;28;20182;-72
2023/08/29 05:52:34;;;;;;;1999.90;999.90;;;14.40;99.90;;;;;;5015987;28;20184;-71
2023/08/29 05:54:59;;;;;;;1999.90;999.90;;;14.40;99.90;;;;;;5015769;28;20209;-71
2023/08/29 05:57:25;;;;;;;1999.90;999.90;;;14.50;99.90;;;;;;5015054;28;20187;-70
2023/08/29 05:59:51;;;;;;;1999.90;999.90;;;14.50;99.90;;;;;;5015077;28;20176;-71
2023/08/29 06:02:16;;;;;;;1999.90;999.90;;;14.50;99.90;;;;;;5014793;28;20631;-71
2023/08/29 06:04:42;;;;;;;1999.90;999.90;;;14.60;99.90;;;;;;5015007;28;20553;-71
2023/08/29 06:07:08;;;;;;;1999.90;999.90;;;14.60;99.90;;;;;;5014838;28;20192;-71
2023/08/29 06:09:33;;;;;;;1999.90;999.90;;;14.70;99.90;;;;;;5014904;28;20205;-71
2023/08/29 06:11:59;;;;;;;1999.90;999.90;;;14.80;99.90;;;;;;5014533;28;20602;-71
2023/08/29 06:14:25;;;;;;;1999.90;999.90;;;14.90;99.90;;;;;;5014711;28;20209;-71
2023/08/29 06:16:51;;;;;;;1999.90;999.90;;;14.90;99.90;;;;;;5014516;28;20808;-71
2023/08/29 06:19:17;;;;;;;1999.90;999.90;;;15.10;99.90;;;;;;5014652;28;20411;-71
2023/08/29 06:21:43;;;;;;;1999.90;999.90;;;15.20;99.90;;;;;;5014298;28;20179;-71
2023/08/29 06:24:08;;;;;;;1999.90;999.90;;;15.30;99.90;;;;;;5014621;28;20499;-71
2023/08/29 06:26:34;;;;;;;1999.90;999.90;;;15.40;99.90;;;;;;5014757;28;20205;-72
2023/08/29 06:29:00;;;;;;;1999.90;999.90;;;15.50;99.90;;;;;;5014526;28;20417;-71
2023/08/29 06:31:25;;;;;;;1999.90;999.90;;;15.50;99.90;;;;;;5014223;28;20264;-72
2023/08/29 06:33:51;;;;;;;1999.90;999.90;;;15.60;99.90;;;;;;5014287;28;20222;-72
2023/08/29 06:36:17;;;;;;;1999.90;999.90;;;15.80;99.90;;;;;;5013109;28;20286;-71
2023/08/29 06:38:42;;;;;;;1999.90;999.90;;;15.60;99.90;;;;;;5015046;28;20175;-72
2023/08/29 06:41:08;;;;;;;1999.90;999.90;;;15.60;99.90;;;;;;5014975;28;20264;-72
2023/08/29 06:43:34;;;;;;;1999.90;999.90;;;15.70;99.90;;;;;;5015495;28;20594;-72
2023/08/29 06:46:00;;;;;;;1999.90;999.90;;;15.80;99.90;;;;;;5015172;28;20174;-72
2023/08/29 06:48:26;;;;;;;1999.90;999.90;;;15.80;99.90;;;;;;5014984;28;20271;-71
2023/08/29 06:50:51;;;;;;;1999.90;999.90;;;15.80;99.90;;;;;;5014195;28;20481;-71
2023/08/29 06:53:17;;;;;;;1999.90;999.90;;;15.80;99.90;;;;;;5013886;28;20698;-72
2023/08/29 06:55:45;;;;;;;1999.90;999.90;;;15.90;99.90;;;;;;5014051;28;20209;-71
2023/08/29 06:58:10;;;;;;;1999.90;999.90;;;15.90;99.90;;;;;;5013873;28;20190;-71
2023/08/29 07:00:36;;;;;;;1999.90;999.90;;;15.90;99.90;;;;;;5014032;28;20466;-71
2023/08/29 07:03:02;;;;;;;1999.90;999.90;;;16.10;99.90;;;;;;5013620;28;20653;-71
2023/08/29 07:05:28;;;;;;;1999.90;999.90;;;16.00;99.90;;;;;;5013831;28;20170;-71
2023/08/29 07:07:53;;;;;;;1999.90;999.90;;;16.10;99.90;;;;;;5015903;28;20525;-72
2023/08/29 07:10:19;;;;;;;1999.90;999.90;;;16.10;99.90;;;;;;5017380;28;20269;-71
2023/08/29 07:12:46;;;;;;;1999.90;999.90;;;16.10;99.90;;;;;;5033038;28;20524;-71
2023/08/29 07:15:11;;;;;;;1999.90;999.90;;;16.10;99.90;;;;;;5024869;28;20466;-71
2023/08/29 07:17:37;;;;;;;1999.90;999.90;;;16.20;99.90;;;;;;5019260;28;20459;-72
2023/08/29 07:20:09;;;;;;;1999.90;999.90;;;16.20;99.90;;;;;;5014279;28;20627;-72
2023/08/29 07:22:40;;;;;;;1999.90;999.90;;;16.20;99.90;;;;;;5013777;28;20636;-72
2023/08/29 07:25:06;;;;;;;1999.90;999.90;;;16.30;99.90;;;;;;5013966;28;20407;-71
2023/08/29 07:27:32;;;;;;;1999.90;999.90;;;16.30;99.90;;;;;;5013889;28;20430;-72
2023/08/29 07:29:57;;;;;;;1999.90;999.90;;;16.40;99.90;;;;;;5013921;28;20915;-72
2023/08/29 07:32:23;;;;;;;1999.90;999.90;;;16.40;99.90;;;;;;5013497;28;20259;-72
2023/08/29 07:34:50;;;;;;;1999.90;999.90;;;16.50;99.90;;;;;;5013783;28;20701;-72
2023/08/29 07:37:15;;;;;;;1999.90;999.90;;;16.60;99.90;;;;;;5013878;28;20274;-72
2023/08/29 07:39:41;;;;;;;1999.90;999.90;;;16.60;99.90;;;;;;5014953;28;20434;-73
2023/08/29 07:42:07;;;;;;;1999.90;999.90;;;16.70;99.90;;;;;;5014820;28;20167;-72
2023/08/29 07:44:32;;;;;;;1999.90;999.90;;;16.70;99.90;;;;;;5015538;28;20187;-71
2023/08/29 07:46:58;;;;;;;1999.90;999.90;;;16.70;99.90;;;;;;5014713;28;20421;-72
2023/08/29 07:49:24;;;;;;;1999.90;999.90;;;16.60;99.90;;;;;;5015909;28;20179;-72
2023/08/29 07:51:52;;;;;;;1999.90;999.90;;;16.50;99.90;;;;;;5017348;28;20201;-72
2023/08/29 07:54:18;;;;;;;1999.90;999.90;;;16.40;99.90;;;;;;5022686;28;20212;-73
2023/08/29 07:56:44;;;;;;;1999.90;999.90;;;16.20;99.90;;;;;;5015000;28;20517;-72
2023/08/29 07:59:09;;;;;;;1999.90;999.90;;;16.10;99.90;;;;;;5015515;28;20404;-72
2023/08/29 08:01:35;;;;;;;1999.90;999.90;;;16.10;99.90;;;;;;5014485;28;20231;-71
2023/08/29 08:04:03;;;;;;;1999.90;999.90;;;16.10;99.90;;;;;;5015529;28;20558;-70
2023/08/29 08:06:29;;;;;;;1999.90;999.90;;;16.20;99.90;;;;;;5018174;28;20849;-72
2023/08/29 08:08:56;;;;;;;1999.90;999.90;;;16.30;99.90;;;;;;5018175;28;20486;-72
2023/08/29 08:11:23;;;;;;;1999.90;999.90;;;16.30;99.90;;;;;;5015038;28;20405;-71
2023/08/29 08:13:49;;;;;;;1999.90;999.90;;;16.20;99.90;;;;;;5017145;28;20464;-72
2023/08/29 08:16:14;;;;;;;1999.90;999.90;;;16.30;99.90;;;;;;5016329;28;20423;-72
2023/08/29 08:18:40;;;;;;;1999.90;999.90;;;16.40;99.90;;;;;;5023006;28;20431;-72
2023/08/29 08:21:06;;;;;;;1999.90;999.90;;;16.30;99.90;;;;;;5013536;28;20199;-71
2023/08/29 08:23:31;;;;;;;1999.90;999.90;;;16.30;99.90;;;;;;5013324;28;20515;-72
2023/08/29 08:25:57;;;;;;;1999.90;999.90;;;16.40;99.90;;;;;;5013547;28;20540;-72
2023/08/29 08:28:23;;;;;;;1999.90;999.90;;;16.40;99.90;;;;;;5015758;28;20683;-72
2023/08/29 08:30:49;;;;;;;1999.90;999.90;;;16.40;99.90;;;;;;5017226;28;20289;-71
2023/08/29 08:33:14;;;;;;;1999.90;999.90;;;16.40;99.90;;;;;;5018063;28;20196;-71
2023/08/29 08:35:40;;;;;;;1999.90;999.90;;;16.50;99.90;;;;;;5012687;28;20199;-71
2023/08/29 08:38:08;;;;;;;1999.90;999.90;;;16.60;99.90;;;;;;5004476;28;20967;-72
2023/08/29 08:40:36;;;;;;;1999.90;999.90;;;16.70;99.90;;;;;;5007513;28;20661;-74
2023/08/29 08:43:05;;;;;;;1999.90;999.90;;;17.00;99.90;;;;;;4991401;28;20423;-75
2023/08/29 08:45:31;;;;;;;1999.90;999.90;;;17.00;99.90;;;;;;5012753;28;20467;-76
2023/08/29 08:47:59;;;;;;;1999.90;999.90;;;17.10;99.90;;;;;;5013353;28;21053;-77
2023/08/29 08:50:26;;;;;;;1999.90;999.90;;;17.40;99.90;;;;;;5022992;28;20961;-72
2023/08/29 08:52:51;;;;;;;1999.90;999.90;;;17.50;99.90;;;;;;5013791;28;20506;-74
2023/08/29 08:55:17;;;;;;;1999.90;999.90;;;17.50;99.90;;;;;;5009676;28;20764;-75
2023/08/29 08:57:43;;;;;;;1999.90;999.90;;;17.90;99.90;;;;;;5007641;28;20221;-76
2023/08/29 09:00:09;;;;;;;1999.90;999.90;;;18.20;99.90;;;;;;5012414;28;20265;-76
2023/08/29 09:02:37;;;;;;;1999.90;999.90;;;18.60;99.90;;;;;;5013281;28;20243;-76
2023/08/29 09:05:03;;;;;;;1999.90;999.90;;;18.90;99.90;;;;;;5012369;28;20510;-77
2023/08/29 09:07:29;;;;;;;1999.90;999.90;;;19.10;99.90;;;;;;5029719;28;20530;-74
2023/08/29 09:10:17;;;;;;;1999.90;999.90;;;19.30;99.90;;;;;;5018274;28;20417;-75
2023/08/29 09:12:51;;;;;;;1999.90;999.90;;;19.50;99.90;;;;;;5022030;28;20183;-74
2023/08/29 09:15:19;;;;;;;1999.90;999.90;;;19.80;99.90;;;;;;5008148;28;20455;-74
2023/08/29 09:17:53;;;;;;;1999.90;999.90;;;19.90;99.90;;;;;;5025610;28;20453;-74
2023/08/29 09:20:20;;;;;;;1999.90;999.90;;;20.00;99.90;;;;;;5028360;28;20419;-73
2023/08/29 09:22:47;;;;;;;1999.90;999.90;;;20.20;99.90;;;;;;5023761;28;20428;-73
2023/08/29 09:25:13;;;;;;;1999.90;999.90;;;20.20;99.90;;;;;;5016011;28;20423;-73
2023/08/29 09:27:46;;;;;;;1999.90;999.90;;;20.10;99.90;;;;;;5025585;28;20435;-74
2023/08/29 09:30:16;;;;;;;1999.90;999.90;;;20.00;99.90;;;;;;5019266;28;20423;-74
2023/08/29 09:32:46;;;;;;;1999.90;999.90;;;19.60;99.90;;;;;;5016777;28;20790;-74
2023/08/29 09:35:16;;;;;;;1999.90;999.90;;;19.50;99.90;;;;;;5019689;28;20463;-74
2023/08/29 09:37:53;;;;;;;1999.90;999.90;;;19.40;99.90;;;;;;5018291;28;20428;-74
2023/08/29 09:40:20;;;;;;;1999.90;999.90;;;19.40;99.90;;;;;;5017224;28;20528;-74
2023/08/29 09:43:15;;;;;;;1999.90;999.90;;;19.30;99.90;;;;;;5017068;28;20893;-74
2023/08/29 09:45:41;;;;;;;1999.90;999.90;;;19.50;99.90;;;;;;4988886;28;20442;-74
2023/08/29 09:48:08;;;;;;;1999.90;999.90;;;20.00;99.90;;;;;;4998426;28;20431;-74
2023/08/29 09:50:35;;;;;;;1999.90;999.90;;;20.30;99.90;;;;;;4998205;28;20449;-73
2023/08/29 09:53:02;;;;;;;1999.90;999.90;;;20.30;99.90;;;;;;5010057;28;20498;-75
2023/08/29 09:55:35;;;;;;;1999.90;999.90;;;20.00;99.90;;;;;;5017013;28;20470;-74
2023/08/29 09:58:04;;;;;;;1999.90;999.90;;;19.50;99.90;;;;;;5017454;28;20906;-74
2023/08/29 10:00:30;;;;;;;1999.90;999.90;;;19.60;99.90;;;;;;5017971;28;20404;-74
2023/08/29 10:02:57;;;;;;;1999.90;999.90;;;19.60;99.90;;;;;;5017430;28;20487;-74
2023/08/29 10:05:29;;;;;;;1999.90;999.90;;;19.50;99.90;;;;;;5017356;28;20442;-74
2023/08/29 10:07:57;;;;;;;1999.90;999.90;;;19.40;99.90;;;;;;5017600;28;20443;-74
2023/08/29 10:10:24;;;;;;;1999.90;999.90;;;19.70;99.90;;;;;;5017290;28;20466;-74
2023/08/29 10:12:50;;;;;;;1999.90;999.90;;;19.70;99.90;;;;;;5017698;28;20417;-74
2023/08/29 10:15:18;;;;;;;1999.90;999.90;;;19.40;99.90;;;;;;5022522;28;20838;-74
2023/08/29 10:17:44;;;;;;;1999.90;999.90;;;19.50;99.90;;;;;;5017104;28;20578;-74
2023/08/29 10:20:12;;;;;;;1999.90;999.90;;;19.50;99.90;;;;;;5017859;28;20896;-74
2023/08/29 10:22:41;;;;;;;1999.90;999.90;;;19.70;99.90;;;;;;5018109;28;20418;-74
2023/08/29 10:25:07;;;;;;;1999.90;999.90;;;19.80;99.90;;;;;;5017701;28;20411;-74
2023/08/29 10:27:34;;;;;;;1999.90;999.90;;;20.10;99.90;;;;;;5018788;28;20808;-74
2023/08/29 10:30:05;;;;;;;1999.90;999.90;;;20.10;99.90;;;;;;5018481;28;20415;-74
2023/08/29 10:32:32;;;;;;;1999.90;999.90;;;20.30;99.90;;;;;;5017844;28;20400;-74
2023/08/29 10:34:59;;;;;;;1999.90;999.90;;;20.50;99.90;;;;;;5018602;28;20540;-74
2023/08/29 10:37:26;;;;;;;1999.90;999.90;;;20.60;99.90;;;;;;5019174;28;20960;-74
2023/08/29 10:39:51;;;;;;;1999.90;999.90;;;20.80;99.90;;;;;;5017806;28;20945;-73
2023/08/29 10:42:17;;;;;;;1999.90;999.90;;;20.90;99.90;;;;;;5018398;28;20429;-74
2023/08/29 10:44:44;;;;;;;1999.90;999.90;;;21.00;99.90;;;;;;5018908;28;20253;-74
2023/08/29 10:47:14;;;;;;;1999.90;999.90;;;21.20;99.90;;;;;;5017523;28;20425;-74
2023/08/29 10:49:44;;;;;;;1999.90;999.90;;;21.30;99.90;;;;;;5018824;28;20413;-74
2023/08/29 10:52:10;;;;;;;1999.90;999.90;;;21.30;99.90;;;;;;5017740;28;20494;-74
2023/08/29 10:54:36;;;;;;;1999.90;999.90;;;21.50;99.90;;;;;;5018058;28;20448;-73
2023/08/29 10:57:28;;;;;;;1999.90;999.90;;;21.40;99.90;;;;;;5017536;28;20438;-74
2023/08/29 10:59:55;;;;;;;1999.90;999.90;;;21.30;99.90;;;;;;5018850;28;20863;-73
2023/08/29 11:02:31;;;;;;;1999.90;999.90;;;21.30;99.90;;;;;;5017184;28;20415;-74
2023/08/29 11:05:02;;;;;;;1999.90;999.90;;;21.10;99.90;;;;;;5018614;28;20409;-75
2023/08/29 11:07:28;;;;;;;1999.90;999.90;;;20.70;99.90;;;;;;5018935;28;20505;-74
2023/08/29 11:10:17;;;;;;;1999.90;999.90;;;20.50;99.90;;;;;;5019336;28;20673;-75
2023/08/29 11:13:06;;;;;;;1999.90;999.90;;;20.60;99.90;;;;;;5019036;28;20541;-74
2023/08/29 11:16:02;;;;;;;1999.90;999.90;;;20.90;99.90;;;;;;5017614;28;20460;-74
2023/08/29 11:18:32;;;;;;;1999.90;999.90;;;21.20;99.90;;;;;;5014342;28;20456;-74
2023/08/29 11:21:06;;;;;;;1999.90;999.90;;;21.40;99.90;;;;;;5015299;28;20505;-74
2023/08/29 11:23:40;;;;;;;1999.90;999.90;;;21.60;99.90;;;;;;5017151;28;20396;-74
2023/08/29 11:26:06;;;;;;;1999.90;999.90;;;21.90;99.90;;;;;;5017855;28;20481;-74
2023/08/29 11:28:35;;;;;;;1999.90;999.90;;;22.00;99.90;;;;;;5019131;28;20856;-74
2023/08/29 11:31:01;;;;;;;1999.90;999.90;;;21.90;99.90;;;;;;5017808;28;20417;-74
2023/08/29 11:33:32;;;;;;;1999.90;999.90;;;22.30;99.90;;;;;;5017451;28;20490;-73
2023/08/29 11:35:58;;;;;;;1999.90;999.90;;;22.40;99.90;;;;;;5023298;28;20261;-75
2023/08/29 11:38:30;;;;;;;1999.90;999.90;;;22.50;99.90;;;;;;5018371;28;20439;-74
2023/08/29 11:40:57;;;;;;;1999.90;999.90;;;22.80;99.90;;;;;;5017871;28;20400;-74
2023/08/29 11:43:24;;;;;;;1999.90;999.90;;;22.50;99.90;;;;;;5016957;28;20816;-74
2023/08/29 11:45:55;;;;;;;1999.90;999.90;;;22.10;99.90;;;;;;5017477;28;20405;-74
2023/08/29 11:48:22;;;;;;;1999.90;999.90;;;22.20;99.90;;;;;;5017715;28;20510;-74
2023/08/29 11:50:48;;;;;;;1999.90;999.90;;;22.00;99.90;;;;;;5016709;28;20419;-74
2023/08/29 11:53:27;;;;;;;1999.90;999.90;;;22.10;99.90;;;;;;5016918;28;20894;-74
2023/08/29 11:55:53;;;;;;;1999.90;999.90;;;22.20;99.90;;;;;;5016593;28;20215;-74
2023/08/29 11:58:19;;;;;;;1999.90;999.90;;;22.30;99.90;;;;;;5016822;28;20430;-74